Crystal Symphony — C6MY5 — position and weather

sailwx.info

Track history (hours):
 
Tides and Currents Weather Stations Pressure Air Temp Water Temp Dewpoint Dewpoint Depression Visibility Wind Speed Wind Dir Waves Ship Positions

Crystal Symphony

Operator: Crystal Cruises

Last reported at 2017-Nov-09 03:24 UTC. Time now 2017-Nov-19 14:16 UTC.
Position N 31°51' E 034°38'.
Warning: this ship's position is 10 days out of date.

Length 238 m; draft 8 m.

Type: Ship. MMSI: 309168000.

Date/timePositionNaut miles runAvg speedWind from/ knotsBaromVisibWave heightAir tempDewpointWater temp
2017-Nov-09 03:24N 31°51' E 034°38'15 7.0
2017-Nov-09 01:20N 32°05' E 034°31'413.6
2017-Nov-09 01:00N 32°09' E 034°33'713.6
2017-Nov-09 00:30N 32°15' E 034°35'713.8
2017-Nov-09 00:00N 32°22' E 034°38'713.7
2017-Nov-08 23:30N 32°29' E 034°40'713.7
2017-Nov-08 23:00N 32°35' E 034°42'713.8
2017-Nov-08 22:30N 32°42' E 034°45'713.5
2017-Nov-08 22:00N 32°48' E 034°47'138 4.7
2017-Nov-07 16:46N 34°38' E 033°05'310.7
2017-Nov-07 16:30N 34°39' E 033°02'1 1.8
2017-Nov-07 16:00N 34°39' E 033°01'0 0.0
2017-Nov-07 15:23N 34°39' E 033°01'0 0.0
2017-Nov-07 14:58N 34°39' E 033°01'0 0.0
2017-Nov-07 14:28N 34°39' E 033°01'0 0.0
2017-Nov-07 13:58N 34°39' E 033°01'0 0.0
2017-Nov-07 13:28N 34°39' E 033°01'0 0.0
2017-Nov-07 13:01N 34°39' E 033°01'0 0.0
2017-Nov-07 12:30N 34°39' E 033°01'0 0.0
2017-Nov-07 12:00N 34°39' E 033°01'0 0.0
2017-Nov-07 11:24N 34°39' E 033°01'0 0.0
2017-Nov-07 11:00N 34°39' E 033°01'0 0.0
2017-Nov-07 10:29N 34°39' E 033°01'0 0.0
2017-Nov-07 09:59N 34°39' E 033°01'0 0.0
2017-Nov-07 09:30N 34°39' E 033°01'1 1.1
2017-Nov-07 09:01N 34°39' E 033°02'  
2017-Nov-03 23:33N 42°22' E 010°37'118.1
2017-Nov-03 23:29N 42°23' E 010°36'917.9
2017-Nov-03 22:59N 42°29' E 010°26'817.6
2017-Nov-03 22:30N 42°35' E 010°18'2515.4
2017-Nov-03 20:51N 42°57' E 010°01'618.2
2017-Nov-03 20:30N 43°03' E 010°04'918.1
2017-Nov-03 20:00N 43°11' E 010°06'918.2
2017-Nov-03 19:31N 43°20' E 010°09'917.8
2017-Nov-03 19:01N 43°29' E 010°12'510.8
2017-Nov-03 18:30N 43°33' E 010°17'1 1.8
2017-Nov-03 18:00N 43°33' E 010°18'0 0.0
2017-Nov-03 17:30N 43°33' E 010°18'0 0.0
2017-Nov-03 17:00N 43°33' E 010°18'0 0.0
2017-Nov-03 16:30N 43°33' E 010°18'0 0.0
2017-Nov-03 15:54N 43°33' E 010°18'0 0.0
2017-Nov-03 15:30N 43°33' E 010°18'0 0.0
2017-Nov-03 14:59N 43°33' E 010°18'0 0.0
2017-Nov-03 14:29N 43°33' E 010°18'0 0.0
2017-Nov-03 13:56N 43°33' E 010°18'0 0.0
2017-Nov-03 13:29N 43°33' E 010°18'0 0.0
2017-Nov-03 12:58N 43°33' E 010°18'0 0.0
2017-Nov-03 12:25N 43°33' E 010°18'0 0.0
2017-Nov-03 11:58N 43°33' E 010°18'0 0.0
2017-Nov-03 11:28N 43°33' E 010°18'0 0.0
2017-Nov-03 10:58N 43°33' E 010°18'0 0.0
2017-Nov-03 10:27N 43°33' E 010°18'0 0.0
2017-Nov-03 10:00N 43°33' E 010°18'0 0.0
2017-Nov-03 09:30N 43°33' E 010°18'0 0.0
2017-Nov-03 09:00N 43°33' E 010°18'0 0.0
2017-Nov-03 08:29N 43°33' E 010°18'0 0.0
2017-Nov-03 07:59N 43°33' E 010°18'0 0.0
2017-Nov-03 07:26N 43°33' E 010°18'0 0.0
2017-Nov-03 06:59N 43°33' E 010°18'0 0.0
2017-Nov-03 06:29N 43°33' E 010°18'0 0.0
2017-Nov-03 05:58N 43°33' E 010°18'0 0.0
2017-Nov-03 05:30N 43°33' E 010°18'2 3.2
2017-Nov-03 04:58N 43°32' E 010°17'511.2
2017-Nov-03 04:30N 43°29' E 010°10'510.3
2017-Nov-03 04:00N 43°30' E 010°03'510.1
2017-Nov-03 03:30N 43°31' E 009°57'510.3
2017-Nov-03 03:01N 43°32' E 009°50'510.2
2017-Nov-03 02:30N 43°32' E 009°43'510.3
2017-Nov-03 02:00N 43°33' E 009°36'510.2
2017-Nov-03 01:30N 43°33' E 009°29'510.4
2017-Nov-03 01:01N 43°34' E 009°21'612.0
2017-Nov-03 00:30N 43°35' E 009°13'612.0
2017-Nov-03 00:00N 43°35' E 009°05'511.0
2017-Nov-02 23:30N 43°36' E 008°57'510.9
2017-Nov-02 23:00N 43°36' E 008°50'510.8
2017-Nov-02 22:30N 43°36' E 008°42'510.7
2017-Nov-02 22:00N 43°36' E 008°35'510.7
2017-Nov-02 21:30N 43°37' E 008°28'510.6
2017-Nov-02 20:59N 43°37' E 008°20'  
Track history (hours):
 
Tides and Currents Weather Stations Pressure Air Temp Water Temp Dewpoint Dewpoint Depression Visibility Wind Speed Wind Dir Waves Ship Positions

Crystal Symphony

Operator: Crystal Cruises

Last reported at 2017-Nov-09 03:24 UTC. Time now 2017-Nov-19 14:16 UTC.
Position N 31°51' E 034°38'.
Warning: this ship's position is 10 days out of date.

Length 238 m; draft 8 m.

Type: Ship. MMSI: 309168000.

Date/timePositionNaut miles runAvg speedWind from/ knotsBaromVisibWave heightAir tempDewpointWater temp
2017-Nov-09 03:24N 31°51' E 034°38'15 7.0
2017-Nov-09 01:20N 32°05' E 034°31'413.6
2017-Nov-09 01:00N 32°09' E 034°33'713.6
2017-Nov-09 00:30N 32°15' E 034°35'713.8
2017-Nov-09 00:00N 32°22' E 034°38'713.7
2017-Nov-08 23:30N 32°29' E 034°40'713.7
2017-Nov-08 23:00N 32°35' E 034°42'713.8
2017-Nov-08 22:30N 32°42' E 034°45'713.5
2017-Nov-08 22:00N 32°48' E 034°47'138 4.7
2017-Nov-07 16:46N 34°38' E 033°05'310.7
2017-Nov-07 16:30N 34°39' E 033°02'1 1.8
2017-Nov-07 16:00N 34°39' E 033°01'0 0.0
2017-Nov-07 15:23N 34°39' E 033°01'0 0.0
2017-Nov-07 14:58N 34°39' E 033°01'0 0.0
2017-Nov-07 14:28N 34°39' E 033°01'0 0.0
2017-Nov-07 13:58N 34°39' E 033°01'0 0.0
2017-Nov-07 13:28N 34°39' E 033°01'0 0.0
2017-Nov-07 13:01N 34°39' E 033°01'0 0.0
2017-Nov-07 12:30N 34°39' E 033°01'0 0.0
2017-Nov-07 12:00N 34°39' E 033°01'0 0.0
2017-Nov-07 11:24N 34°39' E 033°01'0 0.0
2017-Nov-07 11:00N 34°39' E 033°01'0 0.0
2017-Nov-07 10:29N 34°39' E 033°01'0 0.0
2017-Nov-07 09:59N 34°39' E 033°01'0 0.0
2017-Nov-07 09:30N 34°39' E 033°01'1 1.1
2017-Nov-07 09:01N 34°39' E 033°02'  
2017-Nov-03 23:33N 42°22' E 010°37'118.1
2017-Nov-03 23:29N 42°23' E 010°36'917.9
2017-Nov-03 22:59N 42°29' E 010°26'817.6
2017-Nov-03 22:30N 42°35' E 010°18'2515.4
2017-Nov-03 20:51N 42°57' E 010°01'618.2
2017-Nov-03 20:30N 43°03' E 010°04'918.1
2017-Nov-03 20:00N 43°11' E 010°06'918.2
2017-Nov-03 19:31N 43°20' E 010°09'917.8
2017-Nov-03 19:01N 43°29' E 010°12'510.8
2017-Nov-03 18:30N 43°33' E 010°17'1 1.8
2017-Nov-03 18:00N 43°33' E 010°18'0 0.0
2017-Nov-03 17:30N 43°33' E 010°18'0 0.0
2017-Nov-03 17:00N 43°33' E 010°18'0 0.0
2017-Nov-03 16:30N 43°33' E 010°18'0 0.0
2017-Nov-03 15:54N 43°33' E 010°18'0 0.0
2017-Nov-03 15:30N 43°33' E 010°18'0 0.0
2017-Nov-03 14:59N 43°33' E 010°18'0 0.0
2017-Nov-03 14:29N 43°33' E 010°18'0 0.0
2017-Nov-03 13:56N 43°33' E 010°18'0 0.0
2017-Nov-03 13:29N 43°33' E 010°18'0 0.0
2017-Nov-03 12:58N 43°33' E 010°18'0 0.0
2017-Nov-03 12:25N 43°33' E 010°18'0 0.0
2017-Nov-03 11:58N 43°33' E 010°18'0 0.0
2017-Nov-03 11:28N 43°33' E 010°18'0 0.0
2017-Nov-03 10:58N 43°33' E 010°18'0 0.0
2017-Nov-03 10:27N 43°33' E 010°18'0 0.0
2017-Nov-03 10:00N 43°33' E 010°18'0 0.0
2017-Nov-03 09:30N 43°33' E 010°18'0 0.0
2017-Nov-03 09:00N 43°33' E 010°18'0 0.0
2017-Nov-03 08:29N 43°33' E 010°18'0 0.0
2017-Nov-03 07:59N 43°33' E 010°18'0 0.0
2017-Nov-03 07:26N 43°33' E 010°18'0 0.0
2017-Nov-03 06:59N 43°33' E 010°18'0 0.0
2017-Nov-03 06:29N 43°33' E 010°18'0 0.0
2017-Nov-03 05:58N 43°33' E 010°18'0 0.0
2017-Nov-03 05:30N 43°33' E 010°18'2 3.2
2017-Nov-03 04:58N 43°32' E 010°17'511.2
2017-Nov-03 04:30N 43°29' E 010°10'510.3
2017-Nov-03 04:00N 43°30' E 010°03'510.1
2017-Nov-03 03:30N 43°31' E 009°57'510.3
2017-Nov-03 03:01N 43°32' E 009°50'510.2
2017-Nov-03 02:30N 43°32' E 009°43'510.3
2017-Nov-03 02:00N 43°33' E 009°36'510.2
2017-Nov-03 01:30N 43°33' E 009°29'510.4
2017-Nov-03 01:01N 43°34' E 009°21'612.0
2017-Nov-03 00:30N 43°35' E 009°13'612.0
2017-Nov-03 00:00N 43°35' E 009°05'511.0
2017-Nov-02 23:30N 43°36' E 008°57'510.9
2017-Nov-02 23:00N 43°36' E 008°50'510.8
2017-Nov-02 22:30N 43°36' E 008°42'510.7
2017-Nov-02 22:00N 43°36' E 008°35'510.7
2017-Nov-02 21:30N 43°37' E 008°28'510.6
2017-Nov-02 20:59N 43°37' E 008°20'  

Dump ship's entire track history